createdAt,value
2018-08-17T00:00:46.068Z,5.83
2018-08-17T00:03:15.010Z,4.20
2018-08-17T00:05:43.993Z,3.83
2018-08-17T00:08:12.931Z,4.50
2018-08-17T00:10:42.157Z,4.43
2018-08-17T00:13:11.198Z,4.80
2018-08-17T00:15:40.121Z,4.70
2018-08-17T00:18:09.343Z,4.20
2018-08-17T00:20:38.408Z,4.67
2018-08-17T00:23:07.436Z,4.97
2018-08-17T00:25:36.503Z,5.03
2018-08-17T00:28:05.790Z,4.20
2018-08-17T00:30:34.818Z,4.60
2018-08-17T00:33:03.972Z,5.20
2018-08-17T00:35:32.887Z,5.27
2018-08-17T00:38:01.997Z,4.50
2018-08-17T00:40:31.129Z,5.13
2018-08-17T00:43:00.214Z,5.30
2018-08-17T00:45:29.238Z,5.00
2018-08-17T00:47:58.328Z,4.23
2018-08-17T00:50:28.264Z,4.97
2018-08-17T00:52:57.318Z,4.87
2018-08-17T00:55:26.428Z,4.80
2018-08-17T00:57:55.638Z,4.40
2018-08-17T01:00:24.588Z,5.00
2018-08-17T01:02:53.726Z,4.90
2018-08-17T01:05:22.727Z,5.30
2018-08-17T01:07:51.721Z,4.97
2018-08-17T01:10:20.568Z,5.77
2018-08-17T01:12:49.539Z,5.00
2018-08-17T01:15:18.633Z,4.70
2018-08-17T01:17:47.627Z,4.37
2018-08-17T01:20:16.642Z,4.70
2018-08-17T01:22:45.783Z,5.50
2018-08-17T01:25:14.711Z,4.87
2018-08-17T01:27:43.668Z,4.67
2018-08-17T01:30:12.732Z,4.70
2018-08-17T01:32:41.696Z,5.03
2018-08-17T01:35:10.728Z,5.40
2018-08-17T01:37:39.684Z,4.77
2018-08-17T01:40:08.878Z,4.67
2018-08-17T01:42:37.944Z,4.10
2018-08-17T01:45:07.766Z,4.90
2018-08-17T01:47:36.874Z,4.17
2018-08-17T01:50:06.155Z,4.70
2018-08-17T01:52:35.241Z,4.50
2018-08-17T01:55:05.488Z,5.30
2018-08-17T01:57:34.459Z,4.63
2018-08-17T02:00:03.459Z,4.90
2018-08-17T02:02:32.435Z,5.53
2018-08-17T02:05:01.383Z,5.77
2018-08-17T02:07:30.556Z,5.70
2018-08-17T02:09:59.637Z,5.10
2018-08-17T02:12:28.642Z,4.47
2018-08-17T02:14:57.714Z,4.43
2018-08-17T02:17:26.685Z,4.00
2018-08-17T02:19:55.706Z,4.97
2018-08-17T02:22:24.700Z,4.33
2018-08-17T02:24:53.696Z,5.10
2018-08-17T02:27:22.576Z,5.00
2018-08-17T02:29:52.508Z,4.47
2018-08-17T02:32:21.460Z,4.90
2018-08-17T02:34:50.606Z,4.93
2018-08-17T02:37:19.598Z,5.20
2018-08-17T02:39:48.539Z,5.37
2018-08-17T02:42:17.567Z,7.03
2018-08-17T02:44:46.556Z,8.83
2018-08-17T02:47:15.567Z,6.83
2018-08-17T02:49:44.504Z,9.73
2018-08-17T02:52:13.571Z,9.17
2018-08-17T02:54:42.550Z,8.27
2018-08-17T02:57:11.546Z,8.57
2018-08-17T02:59:40.579Z,9.33
2018-08-17T03:02:09.638Z,10.50
2018-08-17T03:04:38.703Z,10.73
2018-08-17T03:07:07.666Z,7.73
2018-08-17T03:09:36.863Z,9.17
2018-08-17T03:12:06.006Z,9.87
2018-08-17T03:14:34.875Z,9.00
2018-08-17T03:17:03.908Z,6.33
2018-08-17T03:19:32.958Z,6.23
2018-08-17T03:22:01.915Z,6.00
2018-08-17T03:24:30.880Z,7.17
2018-08-17T03:26:59.851Z,5.20
2018-08-17T03:29:28.873Z,5.20
2018-08-17T03:31:57.829Z,4.90
2018-08-17T03:34:26.934Z,5.00
2018-08-17T03:36:55.911Z,5.47
2018-08-17T03:39:24.970Z,5.10
2018-08-17T03:41:53.927Z,4.60
2018-08-17T03:44:23.006Z,5.20
2018-08-17T03:46:52.162Z,5.40
2018-08-17T03:49:21.060Z,4.40
2018-08-17T03:51:50.260Z,5.20
2018-08-17T03:54:19.392Z,4.90
2018-08-17T03:56:48.402Z,5.20
2018-08-17T03:59:17.441Z,4.80
2018-08-17T04:01:46.375Z,4.57
2018-08-17T04:04:15.511Z,4.77
2018-08-17T04:06:44.485Z,4.97
2018-08-17T04:09:13.485Z,5.03
2018-08-17T04:11:42.590Z,4.67
2018-08-17T04:14:11.697Z,4.60
2018-08-17T04:16:40.754Z,4.90
2018-08-17T04:19:09.920Z,4.67
2018-08-17T04:21:39.015Z,4.57
2018-08-17T04:24:08.159Z,4.67
2018-08-17T04:26:37.161Z,5.10
2018-08-17T04:29:06.168Z,5.03
2018-08-17T04:31:35.157Z,4.90
2018-08-17T04:34:04.214Z,4.73
2018-08-17T04:36:33.257Z,4.60
2018-08-17T04:39:02.239Z,4.30
2018-08-17T04:41:31.203Z,5.03
2018-08-17T04:44:00.127Z,5.43
2018-08-17T04:46:29.094Z,5.60
2018-08-17T04:48:58.158Z,5.73
2018-08-17T04:51:27.274Z,4.90
2018-08-17T04:53:56.326Z,5.13
2018-08-17T04:56:25.329Z,5.67
2018-08-17T04:58:54.306Z,5.00
2018-08-17T05:01:23.268Z,4.93
2018-08-17T05:03:52.402Z,4.93
2018-08-17T05:06:21.382Z,4.80
2018-08-17T05:08:50.546Z,5.83
2018-08-17T05:11:19.578Z,5.90
2018-08-17T05:13:48.534Z,4.90
2018-08-17T05:16:17.573Z,5.13
2018-08-17T05:18:46.555Z,4.90
2018-08-17T05:21:15.635Z,5.53
2018-08-17T05:23:44.796Z,5.30
2018-08-17T05:26:13.832Z,5.17
2018-08-17T05:28:42.965Z,6.17
2018-08-17T05:31:12.007Z,6.00
2018-08-17T05:33:41.035Z,6.70
2018-08-17T05:36:10.091Z,6.37
2018-08-17T05:38:38.986Z,7.30
2018-08-17T05:41:08.111Z,6.60
2018-08-17T05:43:36.990Z,6.20
2018-08-17T05:46:06.180Z,8.77
2018-08-17T05:48:35.160Z,8.70
2018-08-17T05:51:04.267Z,7.43
2018-08-17T05:53:33.309Z,7.67
2018-08-17T05:56:02.271Z,7.70
2018-08-17T05:58:31.252Z,7.70
2018-08-17T06:01:00.301Z,7.67
2018-08-17T06:03:29.372Z,8.67
2018-08-17T06:05:58.468Z,7.80
2018-08-17T06:08:27.544Z,8.07
2018-08-17T06:10:56.545Z,7.53
2018-08-17T06:13:25.570Z,7.10
2018-08-17T06:15:54.539Z,7.30
2018-08-17T06:18:23.651Z,7.97
2018-08-17T06:20:52.614Z,7.40
2018-08-17T06:23:21.633Z,6.83
2018-08-17T06:25:50.730Z,7.60
2018-08-17T06:28:19.736Z,8.43
2018-08-17T06:30:48.835Z,7.90
2018-08-17T06:33:17.903Z,7.37
2018-08-17T06:35:46.916Z,8.47
2018-08-17T06:38:15.892Z,7.80
2018-08-17T06:40:44.896Z,9.20
2018-08-17T06:43:13.873Z,8.13
2018-08-17T06:45:43.042Z,8.50
2018-08-17T06:48:12.085Z,8.40
2018-08-17T06:50:41.908Z,8.47
2018-08-17T06:53:11.014Z,8.80
2018-08-17T06:55:40.158Z,9.03
2018-08-17T06:58:09.275Z,8.87
2018-08-17T07:00:38.362Z,9.17
2018-08-17T07:03:07.603Z,8.70
2018-08-17T07:05:36.658Z,9.43
2018-08-17T07:08:05.682Z,9.30
2018-08-17T07:10:34.767Z,9.80
2018-08-17T07:13:03.816Z,10.07
2018-08-17T07:15:32.772Z,9.70
2018-08-17T07:18:01.830Z,8.90
2018-08-17T07:20:30.922Z,8.50
2018-08-17T07:23:00.028Z,8.90
2018-08-17T07:25:29.154Z,9.68
2018-08-17T07:27:58.016Z,9.03
2018-08-17T07:30:28.928Z,8.63
2018-08-17T07:32:57.907Z,8.43
2018-08-17T07:35:26.916Z,8.03
2018-08-17T07:37:56.082Z,8.03
2018-08-17T07:40:25.118Z,8.23
2018-08-17T07:42:54.288Z,8.33
2018-08-17T07:45:23.558Z,7.50
2018-08-17T07:47:52.541Z,8.00
2018-08-17T07:50:22.236Z,7.87
2018-08-17T07:52:51.377Z,7.30
2018-08-17T07:55:20.300Z,7.60
2018-08-17T07:57:49.643Z,8.37
2018-08-17T08:00:18.655Z,7.50
2018-08-17T08:02:47.680Z,6.67
2018-08-17T08:05:16.732Z,6.60
2018-08-17T08:07:45.843Z,6.23
2018-08-17T08:10:14.946Z,5.90
2018-08-17T08:12:43.954Z,7.10
2018-08-17T08:15:12.974Z,6.73
2018-08-17T08:17:42.142Z,5.90
2018-08-17T08:20:22.264Z,6.37
2018-08-17T08:23:00.911Z,5.60
2018-08-17T08:25:29.839Z,6.20
2018-08-17T08:27:58.975Z,5.63
2018-08-17T08:30:28.014Z,6.20
2018-08-17T08:32:57.198Z,6.17
2018-08-17T08:35:26.236Z,6.10
2018-08-17T08:37:55.329Z,6.03
2018-08-17T08:40:24.473Z,5.83
2018-08-17T08:42:53.825Z,5.10
2018-08-17T08:45:22.880Z,6.03
2018-08-17T08:47:52.279Z,5.83
2018-08-17T08:50:21.296Z,4.83
2018-08-17T08:52:50.530Z,5.30
2018-08-17T08:55:20.112Z,5.37
2018-08-17T08:57:49.277Z,5.07
2018-08-17T09:00:18.359Z,5.20
2018-08-17T09:02:47.555Z,5.47
2018-08-17T09:05:16.553Z,5.23
2018-08-17T09:07:45.574Z,4.87
2018-08-17T09:10:14.715Z,5.00
2018-08-17T09:12:43.679Z,5.40
2018-08-17T09:15:13.163Z,4.97
2018-08-17T09:17:43.205Z,5.00
2018-08-17T09:20:14.776Z,4.47
2018-08-17T09:22:43.890Z,6.70
2018-08-17T09:25:13.311Z,5.57
2018-08-17T09:27:42.380Z,4.90
2018-08-17T09:30:12.978Z,4.63
2018-08-17T09:32:42.490Z,5.00
2018-08-17T09:35:12.926Z,5.30
2018-08-17T09:37:41.945Z,4.77
2018-08-17T09:40:11.616Z,4.37
2018-08-17T09:42:41.370Z,4.10
2018-08-17T09:45:12.156Z,4.53
2018-08-17T09:47:41.444Z,4.20
2018-08-17T09:50:13.502Z,4.73
2018-08-17T09:52:42.572Z,3.97
2018-08-17T09:55:11.887Z,3.80
2018-08-17T09:57:40.927Z,3.50
2018-08-17T10:00:10.953Z,3.70
2018-08-17T10:02:44.963Z,3.93
2018-08-17T10:05:19.142Z,4.53
2018-08-17T10:07:53.362Z,3.90
2018-08-17T10:10:23.827Z,3.80
2018-08-17T10:12:53.361Z,3.57
2018-08-17T10:15:23.795Z,4.63
2018-08-17T10:17:52.995Z,4.47
2018-08-17T10:20:23.143Z,3.87
2018-08-17T10:22:52.097Z,4.03
2018-08-17T10:25:23.387Z,3.70
2018-08-17T10:27:54.040Z,4.00
2018-08-17T10:30:23.472Z,3.33
2018-08-17T10:32:56.314Z,3.60
2018-08-17T10:35:27.036Z,3.70
2018-08-17T10:38:00.298Z,4.23
2018-08-17T10:40:29.483Z,4.10
2018-08-17T10:43:00.152Z,4.47
2018-08-17T10:45:29.571Z,4.07
2018-08-17T10:47:59.040Z,3.80
2018-08-17T10:50:32.188Z,3.90
2018-08-17T10:53:02.599Z,4.00
2018-08-17T10:55:40.834Z,3.93
2018-08-17T10:58:11.425Z,3.87
2018-08-17T11:00:40.458Z,3.30
2018-08-17T11:03:09.578Z,3.63
2018-08-17T11:05:38.596Z,3.23
2018-08-17T11:08:07.718Z,3.60
2018-08-17T11:10:36.871Z,3.37
2018-08-17T11:13:06.181Z,3.13
2018-08-17T11:15:35.398Z,3.40
2018-08-17T11:18:04.614Z,3.40
2018-08-17T11:20:33.548Z,3.47
2018-08-17T11:23:02.657Z,3.73
2018-08-17T11:25:31.794Z,3.90
2018-08-17T11:28:00.771Z,3.90
2018-08-17T11:30:29.755Z,3.83
2018-08-17T11:32:58.850Z,3.93
2018-08-17T11:35:27.857Z,4.87
2018-08-17T11:37:56.865Z,3.60
2018-08-17T11:40:25.971Z,3.97
2018-08-17T11:42:55.244Z,3.60
2018-08-17T11:45:27.001Z,3.07
2018-08-17T11:47:57.178Z,2.20
2018-08-17T11:50:26.977Z,3.00
2018-08-17T11:52:58.039Z,3.10
2018-08-17T11:55:28.755Z,3.23
2018-08-17T11:57:57.709Z,2.90
2018-08-17T12:00:31.230Z,2.80
2018-08-17T12:03:00.206Z,3.27
2018-08-17T12:05:29.589Z,3.07
2018-08-17T12:07:58.635Z,2.50
2018-08-17T12:10:27.932Z,2.60
2018-08-17T12:13:04.879Z,2.60
2018-08-17T12:15:42.310Z,2.80
2018-08-17T12:18:12.142Z,3.00
2018-08-17T12:20:41.546Z,3.30
2018-08-17T12:23:10.545Z,3.00
2018-08-17T12:25:49.771Z,3.17
2018-08-17T12:28:18.924Z,2.90
2018-08-17T12:30:48.007Z,3.33
2018-08-17T12:33:18.870Z,3.40
2018-08-17T12:35:47.846Z,3.10
2018-08-17T12:38:17.674Z,3.30
2018-08-17T12:40:54.054Z,3.80
2018-08-17T12:43:28.299Z,3.23
2018-08-17T12:45:57.319Z,3.50
2018-08-17T12:48:26.316Z,3.20
2018-08-17T12:50:59.322Z,3.40
2018-08-17T12:53:28.863Z,3.80
2018-08-17T12:55:57.907Z,4.10
2018-08-17T12:58:26.882Z,3.80
2018-08-17T13:00:55.904Z,3.93
2018-08-17T13:03:24.873Z,3.60
2018-08-17T13:05:53.888Z,3.90
2018-08-17T13:08:22.854Z,3.67
2018-08-17T13:10:51.971Z,3.43
2018-08-17T13:13:21.192Z,3.57
2018-08-17T13:15:55.560Z,3.33
2018-08-17T13:18:25.991Z,3.60
2018-08-17T13:20:55.494Z,3.63
2018-08-17T13:23:24.488Z,3.57
2018-08-17T13:25:53.887Z,3.50
2018-08-17T13:28:23.044Z,3.73
2018-08-17T13:30:52.187Z,3.77
2018-08-17T13:33:21.595Z,3.73
2018-08-17T13:35:51.141Z,3.53
2018-08-17T13:38:20.554Z,3.20
2018-08-17T13:40:49.810Z,4.00
2018-08-17T13:43:18.759Z,3.40
2018-08-17T13:45:47.782Z,3.50
2018-08-17T13:48:17.075Z,4.10
2018-08-17T13:50:46.264Z,3.63
2018-08-17T13:53:15.273Z,4.00
2018-08-17T13:55:44.400Z,3.60
2018-08-17T13:58:13.612Z,3.23
2018-08-17T14:00:42.801Z,3.30
2018-08-17T14:03:11.839Z,3.70
2018-08-17T14:05:41.241Z,3.37
2018-08-17T14:08:10.792Z,2.93
2018-08-17T14:10:39.902Z,3.37
2018-08-17T14:13:08.967Z,3.50
2018-08-17T14:15:38.190Z,3.03
2018-08-17T14:18:07.171Z,3.37
2018-08-17T14:20:36.131Z,2.93
2018-08-17T14:23:05.295Z,4.40
2018-08-17T14:25:34.470Z,3.07
2018-08-17T14:28:03.927Z,3.80
2018-08-17T14:30:33.420Z,3.60
2018-08-17T14:33:03.661Z,3.27
2018-08-17T14:35:32.700Z,3.33
2018-08-17T14:38:01.830Z,2.90
2018-08-17T14:40:30.855Z,3.13
2018-08-17T14:42:59.977Z,2.80
2018-08-17T14:45:29.106Z,3.17
2018-08-17T14:47:58.058Z,4.60
2018-08-17T14:50:27.185Z,5.63
2018-08-17T14:52:56.534Z,6.60
2018-08-17T14:55:25.652Z,5.80
2018-08-17T14:57:54.986Z,5.30
2018-08-17T15:00:24.216Z,5.80
2018-08-17T15:02:54.511Z,6.20
2018-08-17T15:05:24.308Z,5.80
2018-08-17T15:07:53.537Z,4.60
2018-08-17T15:10:22.513Z,5.27
2018-08-17T15:12:52.196Z,4.77
2018-08-17T15:15:21.407Z,4.00
2018-08-17T15:17:50.764Z,4.13
2018-08-17T15:20:20.186Z,3.83
2018-08-17T15:22:50.079Z,3.43
2018-08-17T15:25:20.044Z,4.30
2018-08-17T15:27:49.073Z,5.30
2018-08-17T15:30:18.104Z,6.40
2018-08-17T15:32:47.294Z,6.00
2018-08-17T15:35:16.223Z,6.47
2018-08-17T15:37:45.291Z,4.93
2018-08-17T15:40:14.620Z,4.37
2018-08-17T15:42:43.723Z,3.80
2018-08-17T15:45:13.121Z,3.00
2018-08-17T15:47:42.682Z,3.40
2018-08-17T15:50:15.543Z,3.30
2018-08-17T15:52:45.285Z,3.20
2018-08-17T15:55:15.814Z,3.03
2018-08-17T15:57:45.673Z,3.10
2018-08-17T16:00:19.074Z,3.10
2018-08-17T16:02:48.483Z,2.90
2018-08-17T16:05:17.708Z,2.70
2018-08-17T16:07:46.716Z,3.20
2018-08-17T16:10:16.679Z,2.80
2018-08-17T16:12:46.222Z,3.97
2018-08-17T16:15:15.375Z,2.93
2018-08-17T16:17:44.485Z,2.60
2018-08-17T16:20:14.018Z,2.53
2018-08-17T16:22:44.161Z,2.47
2018-08-17T16:25:14.125Z,2.77
2018-08-17T16:27:43.718Z,2.47
2018-08-17T16:30:14.904Z,2.40
2018-08-17T16:32:44.506Z,2.13
2018-08-17T16:35:14.206Z,2.43
2018-08-17T16:37:45.534Z,1.90
2018-08-17T16:40:14.785Z,2.23
2018-08-17T16:42:43.859Z,2.00
2018-08-17T16:45:12.851Z,1.50
2018-08-17T16:47:41.796Z,1.80
2018-08-17T16:50:11.136Z,1.70
2018-08-17T16:52:40.491Z,2.30
2018-08-17T16:55:09.720Z,2.20
2018-08-17T16:57:39.176Z,4.00
2018-08-17T17:00:09.783Z,3.83
2018-08-17T17:02:39.258Z,2.60
2018-08-17T17:05:08.596Z,3.00
2018-08-17T17:07:37.619Z,6.70
2018-08-17T17:10:08.639Z,7.47
2018-08-17T17:12:37.864Z,9.77
2018-08-17T17:15:14.072Z,10.00
2018-08-17T17:17:44.064Z,11.63
2018-08-17T17:20:13.207Z,10.57
2018-08-17T17:22:42.687Z,9.20
2018-08-17T17:25:16.911Z,7.77
2018-08-17T17:27:46.350Z,7.67
2018-08-17T17:30:15.299Z,5.60
2018-08-17T17:32:44.427Z,5.30
2018-08-17T17:35:13.449Z,3.80
2018-08-17T17:37:42.428Z,3.00
2018-08-17T17:40:12.291Z,2.90
2018-08-17T17:42:41.445Z,2.50
2018-08-17T17:45:10.394Z,2.73
2018-08-17T17:47:39.367Z,2.30
2018-08-17T17:50:08.508Z,1.70
2018-08-17T17:52:37.459Z,1.93
2018-08-17T17:55:06.608Z,1.70
2018-08-17T17:57:35.683Z,2.37
2018-08-17T18:00:05.095Z,2.13
2018-08-17T18:02:34.043Z,2.47
2018-08-17T18:05:02.979Z,2.43
2018-08-17T18:07:38.939Z,2.63
2018-08-17T18:10:08.227Z,2.23
2018-08-17T18:12:37.232Z,2.43
2018-08-17T18:15:06.555Z,2.10
2018-08-17T18:17:35.804Z,2.10
2018-08-17T18:20:04.959Z,2.43
2018-08-17T18:22:33.933Z,2.30
2018-08-17T18:25:18.809Z,2.97
2018-08-17T18:27:48.969Z,3.13
2018-08-17T18:30:18.121Z,2.30
2018-08-17T18:32:47.442Z,2.20
2018-08-17T18:35:16.478Z,2.80
2018-08-17T18:37:46.444Z,2.77
2018-08-17T18:40:15.721Z,2.23
2018-08-17T18:42:44.939Z,2.40
2018-08-17T18:45:14.877Z,2.60
2018-08-17T18:47:43.950Z,2.47
2018-08-17T18:50:13.148Z,2.30
2018-08-17T18:52:42.466Z,2.50
2018-08-17T18:55:11.846Z,2.83
2018-08-17T18:57:41.040Z,2.33
2018-08-17T19:00:12.745Z,2.60
2018-08-17T19:02:41.912Z,2.00
2018-08-17T19:05:11.613Z,2.30
2018-08-17T19:07:40.856Z,2.53
2018-08-17T19:10:10.671Z,2.60
2018-08-17T19:12:40.016Z,2.00
2018-08-17T19:15:10.823Z,2.80
2018-08-17T19:17:40.663Z,2.43
2018-08-17T19:20:11.920Z,2.60
2018-08-17T19:22:44.583Z,2.43
2018-08-17T19:25:14.951Z,2.10
2018-08-17T19:27:44.275Z,2.13
2018-08-17T19:30:21.491Z,2.30
2018-08-17T19:32:51.610Z,2.60
2018-08-17T19:35:21.317Z,2.10
2018-08-17T19:37:51.445Z,2.23
2018-08-17T19:40:21.525Z,2.80
2018-08-17T19:42:50.671Z,2.90
2018-08-17T19:45:20.725Z,2.90
2018-08-17T19:47:50.189Z,2.30
2018-08-17T19:50:19.999Z,2.80
2018-08-17T19:52:49.420Z,2.33
2018-08-17T19:55:19.231Z,2.53
2018-08-17T19:57:48.578Z,2.90
2018-08-17T20:00:17.891Z,2.57
2018-08-17T20:02:47.212Z,2.93
2018-08-17T20:05:16.298Z,3.17
2018-08-17T20:07:45.558Z,2.93
2018-08-17T20:10:15.169Z,3.70
2018-08-17T20:12:44.695Z,3.10
2018-08-17T20:15:14.010Z,3.17
2018-08-17T20:17:48.654Z,3.30
2018-08-17T20:20:18.780Z,3.70
2018-08-17T20:22:47.815Z,3.60
2018-08-17T20:25:18.040Z,3.53
2018-08-17T20:27:47.552Z,3.73
2018-08-17T20:30:22.638Z,3.63
2018-08-17T20:32:51.683Z,4.20
2018-08-17T20:35:20.819Z,3.60
2018-08-17T20:37:52.242Z,3.97
2018-08-17T20:40:21.617Z,4.13
2018-08-17T20:42:51.059Z,4.00
2018-08-17T20:45:22.034Z,3.50
2018-08-17T20:47:51.040Z,3.27
2018-08-17T20:50:19.964Z,3.47
2018-08-17T20:52:54.296Z,3.80
2018-08-17T20:55:23.419Z,3.77
2018-08-17T20:57:54.734Z,3.87
2018-08-17T21:00:25.275Z,3.70
2018-08-17T21:02:54.381Z,3.70
2018-08-17T21:05:23.631Z,3.73
2018-08-17T21:07:52.684Z,3.90
2018-08-17T21:10:21.747Z,4.43
2018-08-17T21:12:50.963Z,4.10
2018-08-17T21:15:19.873Z,4.07
2018-08-17T21:17:49.240Z,3.53
2018-08-17T21:20:18.324Z,3.40
2018-08-17T21:22:47.283Z,4.13
2018-08-17T21:25:16.392Z,3.90
2018-08-17T21:27:45.499Z,3.93
2018-08-17T21:30:14.676Z,3.67
2018-08-17T21:32:43.775Z,3.90
2018-08-17T21:35:12.771Z,4.10
2018-08-17T21:37:41.980Z,4.40
2018-08-17T21:40:17.396Z,4.33
2018-08-17T21:42:47.184Z,3.63
2018-08-17T21:45:16.324Z,3.90
2018-08-17T21:47:45.216Z,4.70
2018-08-17T21:50:16.733Z,4.70
2018-08-17T21:52:46.407Z,4.77
2018-08-17T21:55:15.811Z,4.23
2018-08-17T21:57:44.906Z,4.37
2018-08-17T22:00:29.051Z,4.67
2018-08-17T22:02:58.296Z,4.00
2018-08-17T22:05:31.711Z,4.33
2018-08-17T22:08:01.276Z,4.77
2018-08-17T22:10:30.895Z,4.67
2018-08-17T22:12:59.840Z,4.53
2018-08-17T22:15:30.156Z,4.83
2018-08-17T22:17:59.065Z,5.13
2018-08-17T22:20:28.039Z,4.90
2018-08-17T22:22:58.424Z,5.80
2018-08-17T22:25:27.575Z,5.50
2018-08-17T22:27:56.759Z,5.33
2018-08-17T22:30:26.758Z,4.77
2018-08-17T22:32:55.762Z,5.60
2018-08-17T22:35:25.211Z,5.97
2018-08-17T22:37:54.179Z,7.10
2018-08-17T22:40:23.183Z,7.40
2018-08-17T22:42:52.531Z,7.00
2018-08-17T22:45:21.547Z,6.90
2018-08-17T22:47:50.579Z,6.90
2018-08-17T22:50:19.729Z,6.83
2018-08-17T22:52:48.892Z,7.47
2018-08-17T22:55:18.108Z,7.20
2018-08-17T22:57:47.231Z,8.93
2018-08-17T23:00:31.654Z,7.93
2018-08-17T23:03:01.778Z,8.13
2018-08-17T23:05:32.388Z,8.77
2018-08-17T23:08:01.444Z,8.57
2018-08-17T23:10:30.659Z,8.97
2018-08-17T23:12:59.655Z,8.93
2018-08-17T23:15:28.956Z,9.20
2018-08-17T23:17:59.107Z,10.00
2018-08-17T23:20:34.602Z,9.13
2018-08-17T23:23:04.607Z,10.00
2018-08-17T23:25:33.980Z,10.07
2018-08-17T23:28:03.136Z,10.30
2018-08-17T23:30:32.360Z,9.27
2018-08-17T23:33:01.534Z,9.90
2018-08-17T23:35:30.657Z,10.00
2018-08-17T23:37:59.612Z,9.67
2018-08-17T23:40:28.869Z,9.80
2018-08-17T23:42:57.958Z,11.03
2018-08-17T23:45:27.040Z,11.50
2018-08-17T23:47:56.263Z,10.70
2018-08-17T23:50:25.321Z,11.20
2018-08-17T23:52:54.554Z,11.20
2018-08-17T23:55:23.654Z,11.57
2018-08-17T23:57:52.856Z,11.77
